createdAt,value
2017-03-27T00:00:25.002Z,0
2017-03-27T00:01:05.875Z,0
2017-03-27T00:01:46.752Z,0
2017-03-27T00:02:27.628Z,0
2017-03-27T00:03:08.520Z,0
2017-03-27T00:03:49.410Z,0
2017-03-27T00:04:30.283Z,0
2017-03-27T00:05:11.164Z,0
2017-03-27T00:05:52.052Z,0
2017-03-27T00:06:32.940Z,0
2017-03-27T00:07:13.821Z,0
2017-03-27T00:07:54.702Z,0
2017-03-27T00:08:35.588Z,0
2017-03-27T00:09:16.467Z,0
2017-03-27T00:09:57.352Z,0
2017-03-27T00:10:38.232Z,0
2017-03-27T00:11:19.116Z,0
2017-03-27T00:12:00.002Z,0
2017-03-27T00:12:40.885Z,0
2017-03-27T00:13:21.764Z,0
2017-03-27T00:14:02.649Z,0
2017-03-27T00:14:43.531Z,0
2017-03-27T00:15:24.424Z,0
2017-03-27T00:16:05.301Z,0
2017-03-27T00:16:46.189Z,0
2017-03-27T00:17:27.064Z,0
2017-03-27T00:18:07.946Z,0
2017-03-27T00:18:48.829Z,0
2017-03-27T00:19:29.718Z,0
2017-03-27T00:20:10.604Z,0
2017-03-27T00:20:51.486Z,0
2017-03-27T00:21:32.366Z,0
2017-03-27T00:22:13.266Z,0
2017-03-27T00:22:54.136Z,0
2017-03-27T00:23:35.020Z,0
2017-03-27T00:24:15.900Z,0
2017-03-27T00:24:56.785Z,0
2017-03-27T00:25:37.667Z,0
2017-03-27T00:26:18.545Z,0
2017-03-27T00:26:59.417Z,0
2017-03-27T00:27:40.296Z,0
2017-03-27T00:28:21.179Z,0
2017-03-27T00:29:02.058Z,0
2017-03-27T00:29:42.940Z,0
2017-03-27T00:30:23.827Z,0
2017-03-27T00:31:04.712Z,0
2017-03-27T00:31:45.605Z,0
2017-03-27T00:32:26.509Z,0
2017-03-27T00:33:07.387Z,0
2017-03-27T00:33:48.258Z,0
2017-03-27T00:34:29.143Z,0
2017-03-27T00:35:10.029Z,0
2017-03-27T00:35:50.915Z,0
2017-03-27T00:36:31.791Z,0
2017-03-27T00:37:12.664Z,0
2017-03-27T00:37:53.544Z,0
2017-03-27T00:38:34.423Z,0
2017-03-27T00:39:15.305Z,0
2017-03-27T00:39:56.186Z,0
2017-03-27T00:40:37.069Z,0
2017-03-27T00:41:17.954Z,0
2017-03-27T00:41:58.838Z,0
2017-03-27T00:42:39.717Z,0
2017-03-27T00:43:20.610Z,0
2017-03-27T00:44:01.517Z,0
2017-03-27T00:44:42.404Z,0
2017-03-27T00:45:23.280Z,0
2017-03-27T00:46:04.170Z,0
2017-03-27T00:46:45.050Z,0
2017-03-27T00:47:25.927Z,0
2017-03-27T00:48:06.810Z,0
2017-03-27T00:48:47.685Z,0
2017-03-27T00:49:28.567Z,0
2017-03-27T00:50:09.449Z,0
2017-03-27T00:50:50.326Z,0
2017-03-27T00:51:31.204Z,0
2017-03-27T00:52:12.089Z,0
2017-03-27T00:52:52.976Z,0
2017-03-27T00:53:33.863Z,0
2017-03-27T00:54:14.743Z,0
2017-03-27T00:54:55.642Z,0
2017-03-27T00:55:36.522Z,0
2017-03-27T00:56:17.398Z,0
2017-03-27T00:56:58.276Z,0
2017-03-27T00:57:39.160Z,0
2017-03-27T00:58:20.042Z,0
2017-03-27T00:59:00.921Z,0
2017-03-27T00:59:41.797Z,0
2017-03-27T01:00:22.678Z,0
2017-03-27T01:01:03.560Z,0
2017-03-27T01:01:44.440Z,0
2017-03-27T01:02:25.321Z,0
2017-03-27T01:03:06.200Z,0
2017-03-27T01:03:47.080Z,0
2017-03-27T01:04:27.963Z,0
2017-03-27T01:05:08.846Z,0
2017-03-27T01:05:49.721Z,0
2017-03-27T01:06:30.605Z,0
2017-03-27T01:07:11.483Z,0
2017-03-27T01:07:52.361Z,0
2017-03-27T01:08:33.245Z,0
2017-03-27T01:09:14.122Z,0
2017-03-27T01:09:55.002Z,0
2017-03-27T01:10:35.885Z,0
2017-03-27T01:11:16.762Z,0
2017-03-27T01:11:57.638Z,0
2017-03-27T01:12:38.522Z,0
2017-03-27T01:13:19.425Z,0
2017-03-27T01:14:00.305Z,0
2017-03-27T01:14:41.195Z,0
2017-03-27T01:15:22.077Z,0
2017-03-27T01:16:02.961Z,0
2017-03-27T01:16:43.845Z,0
2017-03-27T01:17:24.723Z,0
2017-03-27T01:18:05.607Z,0
2017-03-27T01:18:46.494Z,0
2017-03-27T01:19:27.371Z,0
2017-03-27T01:20:08.247Z,0
2017-03-27T01:20:49.135Z,0
2017-03-27T01:21:30.021Z,0
2017-03-27T01:22:10.906Z,0
2017-03-27T01:22:51.785Z,0
2017-03-27T01:23:32.677Z,0
2017-03-27T01:24:13.572Z,0
2017-03-27T01:24:54.446Z,0
2017-03-27T01:25:35.335Z,0
2017-03-27T01:26:16.223Z,0
2017-03-27T01:26:57.097Z,0
2017-03-27T01:27:37.981Z,0
2017-03-27T01:28:18.867Z,0
2017-03-27T01:28:59.749Z,0
2017-03-27T01:29:40.638Z,0
2017-03-27T01:30:21.510Z,0
2017-03-27T01:31:02.413Z,0
2017-03-27T01:31:43.280Z,0
2017-03-27T01:32:24.183Z,0
2017-03-27T01:33:05.036Z,0
2017-03-27T01:33:45.924Z,0
2017-03-27T01:34:26.809Z,0
2017-03-27T01:35:07.695Z,0
2017-03-27T01:35:48.578Z,0
2017-03-27T01:36:29.458Z,0
2017-03-27T01:37:10.344Z,0
2017-03-27T01:37:51.227Z,0
2017-03-27T01:38:32.117Z,0
2017-03-27T01:39:13.020Z,0
2017-03-27T01:39:53.879Z,0
2017-03-27T01:40:34.762Z,0
2017-03-27T01:41:15.645Z,0
2017-03-27T01:41:56.527Z,0
2017-03-27T01:42:37.408Z,0
2017-03-27T01:43:18.304Z,0
2017-03-27T01:43:59.177Z,0
2017-03-27T01:44:40.056Z,0
2017-03-27T01:45:20.941Z,0
2017-03-27T01:46:01.825Z,0
2017-03-27T01:46:42.703Z,0
2017-03-27T01:47:23.584Z,0
2017-03-27T01:48:04.453Z,0
2017-03-27T01:48:45.334Z,0
2017-03-27T01:49:26.221Z,0
2017-03-27T01:50:07.103Z,0
2017-03-27T01:50:47.986Z,0
2017-03-27T01:51:28.861Z,0
2017-03-27T01:52:09.751Z,0
2017-03-27T01:52:50.634Z,0
2017-03-27T01:53:31.519Z,0
2017-03-27T01:54:12.404Z,0
2017-03-27T01:54:53.288Z,0
2017-03-27T01:55:34.156Z,0
2017-03-27T01:56:15.044Z,0
2017-03-27T01:56:55.928Z,0
2017-03-27T01:57:36.814Z,0
2017-03-27T01:58:17.701Z,0
2017-03-27T01:58:58.582Z,0
2017-03-27T01:59:39.460Z,0
2017-03-27T02:00:20.340Z,0
2017-03-27T02:01:01.220Z,0
2017-03-27T02:01:42.094Z,0
2017-03-27T02:02:22.971Z,0
2017-03-27T02:03:03.839Z,0
2017-03-27T02:03:44.723Z,0
2017-03-27T02:04:25.604Z,0
2017-03-27T02:05:06.492Z,0
2017-03-27T02:05:47.373Z,0
2017-03-27T02:06:28.255Z,0
2017-03-27T02:07:09.144Z,0
2017-03-27T02:07:50.018Z,0
2017-03-27T02:08:30.897Z,0
2017-03-27T02:09:11.791Z,0
2017-03-27T02:09:52.665Z,0
2017-03-27T02:10:33.550Z,0
2017-03-27T02:11:14.430Z,0
2017-03-27T02:11:55.311Z,0
2017-03-27T02:12:36.193Z,0
2017-03-27T02:13:17.073Z,0
2017-03-27T02:13:57.955Z,0
2017-03-27T02:14:38.836Z,0
2017-03-27T02:15:19.724Z,0
2017-03-27T02:16:00.610Z,0
2017-03-27T02:16:41.493Z,0
2017-03-27T02:17:22.395Z,0
2017-03-27T02:18:03.264Z,0
2017-03-27T02:18:44.175Z,0
2017-03-27T02:19:25.028Z,0
2017-03-27T02:20:05.907Z,0
2017-03-27T02:20:46.791Z,0
2017-03-27T02:21:27.677Z,0
2017-03-27T02:22:08.562Z,0
2017-03-27T02:22:49.442Z,0
2017-03-27T02:23:30.318Z,0
2017-03-27T02:24:11.199Z,0
2017-03-27T02:24:52.084Z,0
2017-03-27T02:25:32.958Z,0
2017-03-27T02:26:13.842Z,0
2017-03-27T02:26:54.720Z,0
2017-03-27T02:27:35.600Z,0
2017-03-27T02:28:16.481Z,0
2017-03-27T02:28:57.365Z,0
2017-03-27T02:29:38.229Z,0
2017-03-27T02:30:19.116Z,0
2017-03-27T02:30:59.999Z,0
2017-03-27T02:31:40.877Z,0
2017-03-27T02:32:21.760Z,0
2017-03-27T02:33:02.647Z,0
2017-03-27T02:33:43.531Z,0
2017-03-27T02:34:24.411Z,0
2017-03-27T02:35:05.290Z,0
2017-03-27T02:35:46.173Z,0
2017-03-27T02:36:27.075Z,0
2017-03-27T02:37:07.940Z,0
2017-03-27T02:37:48.824Z,0
2017-03-27T02:38:29.714Z,0
2017-03-27T02:39:10.595Z,0
2017-03-27T02:39:51.493Z,0
2017-03-27T02:40:32.369Z,0
2017-03-27T02:41:13.252Z,0
2017-03-27T02:41:54.131Z,0
2017-03-27T02:42:35.013Z,0
2017-03-27T02:43:15.894Z,0
2017-03-27T02:43:56.777Z,0
2017-03-27T02:44:37.657Z,0
2017-03-27T02:45:18.538Z,0
2017-03-27T02:45:59.422Z,0
2017-03-27T02:46:40.312Z,0
2017-03-27T02:47:21.193Z,0
2017-03-27T02:48:02.069Z,0
2017-03-27T02:48:42.970Z,0
2017-03-27T02:49:23.852Z,0
2017-03-27T02:50:04.730Z,0
2017-03-27T02:50:45.610Z,0
2017-03-27T02:51:26.495Z,0
2017-03-27T02:52:07.368Z,0
2017-03-27T02:52:48.254Z,0
2017-03-27T02:53:29.134Z,0
2017-03-27T02:54:10.018Z,0
2017-03-27T02:54:50.907Z,0
2017-03-27T02:55:31.791Z,0
2017-03-27T02:56:12.675Z,0
2017-03-27T02:56:53.558Z,0
2017-03-27T02:57:34.438Z,0
2017-03-27T02:58:15.326Z,0
2017-03-27T02:58:56.206Z,0
2017-03-27T02:59:37.093Z,0
2017-03-27T03:00:17.976Z,0
2017-03-27T03:00:58.860Z,0
2017-03-27T03:01:39.733Z,0
2017-03-27T03:02:20.616Z,0
2017-03-27T03:03:01.500Z,0
2017-03-27T03:03:42.392Z,0
2017-03-27T03:04:23.280Z,0
2017-03-27T03:05:04.162Z,0
2017-03-27T03:05:45.043Z,0
2017-03-27T03:06:25.922Z,0
2017-03-27T03:07:06.805Z,0
2017-03-27T03:07:47.690Z,0
2017-03-27T03:08:28.578Z,0
2017-03-27T03:09:09.460Z,0
2017-03-27T03:09:50.343Z,0
2017-03-27T03:10:31.250Z,0
2017-03-27T03:11:12.130Z,0
2017-03-27T03:11:53.008Z,0
2017-03-27T03:12:33.883Z,0
2017-03-27T03:13:14.762Z,0
2017-03-27T03:13:55.648Z,0
2017-03-27T03:14:36.527Z,0
2017-03-27T03:15:17.410Z,0
2017-03-27T03:15:58.296Z,0
2017-03-27T03:16:39.190Z,0
2017-03-27T03:17:20.060Z,0
2017-03-27T03:18:00.949Z,0
2017-03-27T03:18:41.837Z,0
2017-03-27T03:19:22.731Z,0
2017-03-27T03:20:03.618Z,0
2017-03-27T03:20:44.506Z,0
2017-03-27T03:21:25.400Z,0
2017-03-27T03:22:06.275Z,0
2017-03-27T03:22:47.166Z,0
2017-03-27T03:23:28.039Z,0
2017-03-27T03:24:08.932Z,0
2017-03-27T03:24:49.815Z,0
2017-03-27T03:25:30.701Z,0
2017-03-27T03:26:11.584Z,0
2017-03-27T03:26:52.472Z,0
2017-03-27T03:27:33.339Z,0
2017-03-27T03:28:14.222Z,0
2017-03-27T03:28:55.103Z,0
2017-03-27T03:29:35.987Z,0
2017-03-27T03:30:16.869Z,0
2017-03-27T03:30:57.753Z,0
2017-03-27T03:31:38.633Z,0
2017-03-27T03:32:19.517Z,0
2017-03-27T03:33:00.406Z,0
2017-03-27T03:33:41.295Z,0
2017-03-27T03:34:22.180Z,0
2017-03-27T03:35:03.059Z,0
2017-03-27T03:35:43.937Z,0
2017-03-27T03:36:24.815Z,0
2017-03-27T03:37:05.701Z,0
2017-03-27T03:37:46.581Z,0
2017-03-27T03:38:27.468Z,0
2017-03-27T03:39:08.348Z,0
2017-03-27T03:39:49.243Z,0
2017-03-27T03:40:30.121Z,0
2017-03-27T03:41:11.007Z,0
2017-03-27T03:41:51.906Z,0
2017-03-27T03:42:32.812Z,0
2017-03-27T03:43:13.667Z,0
2017-03-27T03:43:54.534Z,0
2017-03-27T03:44:35.415Z,0
2017-03-27T03:45:16.304Z,0
2017-03-27T03:45:57.185Z,0
2017-03-27T03:46:38.061Z,0
2017-03-27T03:47:18.943Z,0
2017-03-27T03:47:59.825Z,0
2017-03-27T03:48:40.708Z,0
2017-03-27T03:49:21.590Z,0
2017-03-27T03:50:02.479Z,0
2017-03-27T03:50:43.365Z,0
2017-03-27T03:51:24.257Z,0
2017-03-27T03:52:05.131Z,0
2017-03-27T03:52:46.015Z,0
2017-03-27T03:53:26.907Z,0
2017-03-27T03:54:07.793Z,0
2017-03-27T03:54:48.667Z,0
2017-03-27T03:55:29.547Z,0
2017-03-27T03:56:10.434Z,0
2017-03-27T03:56:51.314Z,0
2017-03-27T03:57:32.195Z,0
2017-03-27T03:58:13.077Z,0
2017-03-27T03:58:53.968Z,0
2017-03-27T03:59:34.855Z,0
2017-03-27T04:00:15.735Z,0
2017-03-27T04:00:56.619Z,0
2017-03-27T04:01:37.523Z,0
2017-03-27T04:02:18.392Z,0
2017-03-27T04:02:59.272Z,0
2017-03-27T04:03:40.151Z,0
2017-03-27T04:04:21.031Z,0
2017-03-27T04:05:01.915Z,0
2017-03-27T04:05:42.791Z,0
2017-03-27T04:06:23.665Z,0
2017-03-27T04:07:04.544Z,0
2017-03-27T04:07:45.425Z,0
2017-03-27T04:08:26.312Z,0
2017-03-27T04:09:07.190Z,0
2017-03-27T04:09:48.074Z,0
2017-03-27T04:10:28.957Z,0
2017-03-27T04:11:09.845Z,0
2017-03-27T04:11:50.722Z,0
2017-03-27T04:12:31.607Z,0
2017-03-27T04:13:12.491Z,0
2017-03-27T04:13:53.375Z,0
2017-03-27T04:14:34.272Z,0
2017-03-27T04:15:15.148Z,0
2017-03-27T04:15:56.026Z,0
2017-03-27T04:16:36.911Z,4
2017-03-27T04:17:17.788Z,4
2017-03-27T04:17:58.671Z,4
2017-03-27T04:18:39.558Z,4
2017-03-27T04:19:20.442Z,4
2017-03-27T04:20:01.320Z,0
2017-03-27T04:20:42.198Z,0
2017-03-27T04:21:23.079Z,0
2017-03-27T04:22:03.960Z,4
2017-03-27T04:22:44.845Z,4
2017-03-27T04:23:25.720Z,0
2017-03-27T04:24:06.601Z,4
2017-03-27T04:24:47.492Z,4
2017-03-27T04:25:28.384Z,4
2017-03-27T04:26:09.273Z,4
2017-03-27T04:26:50.165Z,8
2017-03-27T04:27:31.046Z,8
2017-03-27T04:28:11.926Z,8
2017-03-27T04:28:52.804Z,8
2017-03-27T04:29:33.687Z,12
2017-03-27T04:30:14.579Z,8
2017-03-27T04:30:55.456Z,12
2017-03-27T04:31:36.335Z,12
2017-03-27T04:32:17.218Z,16
2017-03-27T04:32:58.104Z,12
2017-03-27T04:33:38.990Z,16
2017-03-27T04:34:19.862Z,20
2017-03-27T04:35:00.738Z,20
2017-03-27T04:35:41.628Z,24
2017-03-27T04:36:22.507Z,24
2017-03-27T04:37:03.387Z,28
2017-03-27T04:37:44.267Z,32
2017-03-27T04:38:25.153Z,36
2017-03-27T04:39:06.040Z,36
2017-03-27T04:39:46.910Z,44
2017-03-27T04:40:27.790Z,48
2017-03-27T04:41:08.673Z,52
2017-03-27T04:41:49.563Z,56
2017-03-27T04:42:30.446Z,60
2017-03-27T04:43:11.330Z,68
2017-03-27T04:43:52.207Z,72
2017-03-27T04:44:33.094Z,80
2017-03-27T04:45:13.975Z,88
2017-03-27T04:45:54.849Z,92
2017-03-27T04:46:35.725Z,100
2017-03-27T04:47:16.609Z,108
2017-03-27T04:47:57.494Z,116
2017-03-27T04:48:38.378Z,124
2017-03-27T04:49:19.252Z,132
2017-03-27T04:50:00.138Z,140
2017-03-27T04:50:41.022Z,152
2017-03-27T04:51:21.900Z,164
2017-03-27T04:52:02.790Z,172
2017-03-27T04:52:43.670Z,184
2017-03-27T04:53:24.562Z,196
2017-03-27T04:54:05.442Z,204
2017-03-27T04:54:46.317Z,216
2017-03-27T04:55:27.206Z,232
2017-03-27T04:56:08.093Z,240
2017-03-27T04:56:48.992Z,256
2017-03-27T04:57:29.833Z,268
2017-03-27T04:58:10.712Z,284
2017-03-27T04:58:51.595Z,296
2017-03-27T04:59:32.485Z,312
2017-03-27T05:00:13.366Z,324
2017-03-27T05:00:54.258Z,336
2017-03-27T05:01:35.135Z,356
2017-03-27T05:02:16.021Z,368
2017-03-27T05:02:56.901Z,384
2017-03-27T05:03:37.774Z,400
2017-03-27T05:04:18.660Z,416
2017-03-27T05:04:59.542Z,432
2017-03-27T05:05:40.421Z,448
2017-03-27T05:06:21.293Z,468
2017-03-27T05:07:02.176Z,480
2017-03-27T05:07:43.072Z,496
2017-03-27T05:08:23.958Z,516
2017-03-27T05:09:04.828Z,532
2017-03-27T05:09:45.701Z,548
2017-03-27T05:10:26.591Z,564
2017-03-27T05:11:07.478Z,580
2017-03-27T05:11:48.361Z,600
2017-03-27T05:12:29.239Z,612
2017-03-27T05:13:10.127Z,632
2017-03-27T05:13:51.007Z,648
2017-03-27T05:14:31.890Z,668
2017-03-27T05:15:12.768Z,684
2017-03-27T05:15:53.645Z,704
2017-03-27T05:16:34.529Z,720
2017-03-27T05:17:15.410Z,736
2017-03-27T05:17:56.293Z,752
2017-03-27T05:18:37.175Z,768
2017-03-27T05:19:18.055Z,788
2017-03-27T05:19:58.938Z,808
2017-03-27T05:20:39.818Z,824
2017-03-27T05:21:20.694Z,840
2017-03-27T05:22:01.559Z,860
2017-03-27T05:22:42.436Z,872
2017-03-27T05:23:23.318Z,892
2017-03-27T05:24:04.196Z,904
2017-03-27T05:24:45.077Z,924
2017-03-27T05:25:25.974Z,940
2017-03-27T05:26:06.840Z,956
2017-03-27T05:26:47.725Z,972
2017-03-27T05:27:28.599Z,988
2017-03-27T05:28:09.478Z,1000
2017-03-27T05:28:50.359Z,1012
2017-03-27T05:29:31.246Z,1032
2017-03-27T05:30:12.123Z,1048
2017-03-27T05:30:52.997Z,1064
2017-03-27T05:31:33.872Z,1080
2017-03-27T05:32:14.758Z,1092
2017-03-27T05:32:55.641Z,1104
2017-03-27T05:33:36.517Z,1120
2017-03-27T05:34:17.399Z,1132
2017-03-27T05:34:58.265Z,1144
2017-03-27T05:35:39.140Z,1160
2017-03-27T05:36:20.024Z,1176
2017-03-27T05:37:00.899Z,1188
2017-03-27T05:37:41.769Z,1200
2017-03-27T05:38:22.645Z,1212
2017-03-27T05:39:03.533Z,1228
2017-03-27T05:39:44.425Z,1244
2017-03-27T05:40:25.311Z,1256
2017-03-27T05:41:06.189Z,1272
2017-03-27T05:41:47.063Z,1280
2017-03-27T05:42:27.944Z,1296
2017-03-27T05:43:08.832Z,1308
2017-03-27T05:43:49.709Z,1324
2017-03-27T05:44:30.588Z,1344
2017-03-27T05:45:11.468Z,1356
2017-03-27T05:45:52.340Z,1372
2017-03-27T05:46:33.222Z,1380
2017-03-27T05:47:14.104Z,1396
2017-03-27T05:47:54.992Z,1416
2017-03-27T05:48:35.866Z,1428
2017-03-27T05:49:16.750Z,1440
2017-03-27T05:49:57.634Z,1456
2017-03-27T05:50:38.515Z,1460
2017-03-27T05:51:19.396Z,1476
2017-03-27T05:52:00.285Z,1488
2017-03-27T05:52:41.162Z,1500
2017-03-27T05:53:22.035Z,1516
2017-03-27T05:54:02.919Z,1524
2017-03-27T05:54:43.805Z,1532
2017-03-27T05:55:24.694Z,1536
2017-03-27T05:56:05.569Z,1544
2017-03-27T05:56:46.449Z,1556
2017-03-27T05:57:27.331Z,1564
2017-03-27T05:58:08.215Z,1584
2017-03-27T05:58:49.098Z,1596
2017-03-27T05:59:29.985Z,1612
2017-03-27T06:00:10.863Z,1620
2017-03-27T06:00:51.742Z,1628
2017-03-27T06:01:32.613Z,1640
2017-03-27T06:02:13.499Z,1652
2017-03-27T06:02:54.374Z,1660
2017-03-27T06:03:35.253Z,1672
2017-03-27T06:04:16.136Z,1680
2017-03-27T06:04:57.018Z,1700
2017-03-27T06:05:37.883Z,1720
2017-03-27T06:06:18.763Z,1736
2017-03-27T06:06:59.656Z,1744
2017-03-27T06:07:40.535Z,1752
2017-03-27T06:08:21.415Z,1764
2017-03-27T06:09:02.293Z,1768
2017-03-27T06:09:43.177Z,1780
2017-03-27T06:10:24.059Z,1784
2017-03-27T06:11:04.954Z,1788
2017-03-27T06:11:45.838Z,1800
2017-03-27T06:12:26.722Z,1812
2017-03-27T06:13:07.606Z,1820
2017-03-27T06:13:48.482Z,1832
2017-03-27T06:14:29.369Z,1844
2017-03-27T06:15:10.253Z,1852
2017-03-27T06:15:51.132Z,1860
2017-03-27T06:16:32.015Z,1872
2017-03-27T06:17:12.903Z,1880
2017-03-27T06:17:53.787Z,1884
2017-03-27T06:18:34.658Z,1892
2017-03-27T06:19:15.541Z,1900
2017-03-27T06:19:56.426Z,1904
2017-03-27T06:20:37.310Z,1908
2017-03-27T06:21:18.189Z,1916
2017-03-27T06:21:59.075Z,1928
2017-03-27T06:22:39.962Z,1940
2017-03-27T06:23:20.843Z,1948
2017-03-27T06:24:01.723Z,1968
2017-03-27T06:24:42.616Z,1992
2017-03-27T06:25:23.500Z,1996
2017-03-27T06:26:04.380Z,1992
2017-03-27T06:26:45.261Z,2004
2017-03-27T06:27:26.145Z,2012
2017-03-27T06:28:07.027Z,2020
2017-03-27T06:28:47.915Z,2032
2017-03-27T06:29:28.798Z,2032
2017-03-27T06:30:09.682Z,2040
2017-03-27T06:30:50.565Z,2056
2017-03-27T06:31:31.446Z,2064
2017-03-27T06:32:12.329Z,2072
2017-03-27T06:32:53.213Z,2080
2017-03-27T06:33:34.099Z,2092
2017-03-27T06:34:15.008Z,2104
2017-03-27T06:34:55.887Z,2112
2017-03-27T06:35:36.768Z,2124
2017-03-27T06:36:17.652Z,2140
2017-03-27T06:36:58.539Z,2148
2017-03-27T06:37:39.422Z,2152
2017-03-27T06:38:20.310Z,2172
2017-03-27T06:39:01.199Z,2172
2017-03-27T06:39:42.072Z,2188
2017-03-27T06:40:22.949Z,2212
2017-03-27T06:41:03.870Z,2216
2017-03-27T06:41:44.752Z,2228
2017-03-27T06:42:25.633Z,2236
2017-03-27T06:43:06.547Z,2252
2017-03-27T06:43:47.428Z,2252
2017-03-27T06:44:28.310Z,2256
2017-03-27T06:45:09.191Z,2268
2017-03-27T06:45:50.069Z,2288
2017-03-27T06:46:30.954Z,2296
2017-03-27T06:47:11.827Z,2312
2017-03-27T06:47:52.701Z,2312
2017-03-27T06:48:33.586Z,2316
2017-03-27T06:49:14.468Z,2332
2017-03-27T06:49:55.349Z,2344
2017-03-27T06:50:36.238Z,2348
2017-03-27T06:51:17.113Z,2352
2017-03-27T06:51:58.000Z,2360
2017-03-27T06:52:38.874Z,2368
2017-03-27T06:53:19.746Z,2376
2017-03-27T06:54:00.622Z,2384
2017-03-27T06:54:41.508Z,2392
2017-03-27T06:55:22.391Z,2392
2017-03-27T06:56:03.275Z,2408
2017-03-27T06:56:44.159Z,2420
2017-03-27T06:57:25.041Z,2428
2017-03-27T06:58:05.925Z,2436
2017-03-27T06:58:46.803Z,2448
2017-03-27T06:59:27.694Z,2460
2017-03-27T07:00:08.574Z,2468
2017-03-27T07:00:49.462Z,2472
2017-03-27T07:01:30.342Z,2476
2017-03-27T07:02:11.237Z,2476
2017-03-27T07:02:52.117Z,2488
2017-03-27T07:03:32.996Z,2512
2017-03-27T07:04:13.878Z,2524
2017-03-27T07:04:54.761Z,2540
2017-03-27T07:05:35.635Z,2532
2017-03-27T07:06:16.526Z,2544
2017-03-27T07:06:57.406Z,2564
2017-03-27T07:07:38.289Z,2572
2017-03-27T07:08:19.169Z,2564
2017-03-27T07:09:00.069Z,2564
2017-03-27T07:09:40.941Z,2580
2017-03-27T07:10:21.828Z,2600
2017-03-27T07:11:02.713Z,2616
2017-03-27T07:11:43.598Z,2620
2017-03-27T07:12:24.479Z,2636
2017-03-27T07:13:05.362Z,2648
2017-03-27T07:13:46.240Z,2656
2017-03-27T07:14:27.131Z,2664
2017-03-27T07:15:08.011Z,2676
2017-03-27T07:15:48.896Z,2684
2017-03-27T07:16:29.780Z,2696
2017-03-27T07:17:10.661Z,2708
2017-03-27T07:17:51.544Z,2708
2017-03-27T07:18:32.426Z,2696
2017-03-27T07:19:13.312Z,2696
2017-03-27T07:19:54.186Z,2700
2017-03-27T07:20:35.064Z,2724
2017-03-27T07:21:15.938Z,2748
2017-03-27T07:21:56.820Z,2760
2017-03-27T07:22:37.712Z,2772
2017-03-27T07:23:18.584Z,2776
2017-03-27T07:23:59.458Z,2800
2017-03-27T07:24:40.339Z,2788
2017-03-27T07:25:21.227Z,2796
2017-03-27T07:26:02.110Z,2812
2017-03-27T07:26:42.990Z,2828
2017-03-27T07:27:23.875Z,2844
2017-03-27T07:28:04.759Z,2856
2017-03-27T07:28:45.649Z,2856
2017-03-27T07:29:26.537Z,2864
2017-03-27T07:30:07.421Z,2880
2017-03-27T07:30:48.308Z,2884
2017-03-27T07:31:29.185Z,2896
2017-03-27T07:32:10.065Z,2908
2017-03-27T07:32:50.948Z,2932
2017-03-27T07:33:31.831Z,2940
2017-03-27T07:34:12.715Z,2948
2017-03-27T07:34:53.621Z,2968
2017-03-27T07:35:34.511Z,2976
2017-03-27T07:36:15.395Z,3004
2017-03-27T07:36:56.303Z,3020
2017-03-27T07:37:37.189Z,3040
2017-03-27T07:38:18.071Z,3060
2017-03-27T07:38:58.950Z,3076
2017-03-27T07:39:39.830Z,3096
2017-03-27T07:40:20.720Z,3112
2017-03-27T07:41:01.595Z,3120
2017-03-27T07:41:42.476Z,3136
2017-03-27T07:42:23.362Z,3164
2017-03-27T07:43:04.245Z,3192
2017-03-27T07:43:45.117Z,3220
2017-03-27T07:44:25.998Z,3248
2017-03-27T07:45:06.880Z,3288
2017-03-27T07:45:47.770Z,3336
2017-03-27T07:46:28.655Z,3372
2017-03-27T07:47:09.541Z,3412
2017-03-27T07:47:50.431Z,3460
2017-03-27T07:48:31.311Z,3524
2017-03-27T07:49:12.199Z,3616
2017-03-27T07:49:53.076Z,3680
2017-03-27T07:50:33.952Z,3796
2017-03-27T07:51:14.844Z,3940
2017-03-27T07:51:55.733Z,4092
2017-03-27T07:52:36.617Z,4268
2017-03-27T07:53:17.507Z,4488
2017-03-27T07:53:58.393Z,4812
2017-03-27T07:54:39.261Z,5144
2017-03-27T07:55:20.330Z,5488
2017-03-27T07:56:01.199Z,5784
2017-03-27T07:56:42.117Z,6084
2017-03-27T07:57:22.998Z,6376
2017-03-27T07:58:03.876Z,6664
2017-03-27T07:58:44.763Z,6920
2017-03-27T07:59:25.651Z,7068
2017-03-27T08:00:06.535Z,8832
2017-03-27T08:00:47.418Z,18912
2017-03-27T08:01:28.367Z,29888
2017-03-27T08:02:09.227Z,30784
2017-03-27T08:02:50.103Z,20640
2017-03-27T08:03:30.977Z,10648
2017-03-27T08:04:11.862Z,7944
2017-03-27T08:04:52.749Z,7860
2017-03-27T08:05:33.640Z,7868
2017-03-27T08:06:14.531Z,7896
2017-03-27T08:06:55.423Z,7904
2017-03-27T08:07:36.332Z,7932
2017-03-27T08:08:17.210Z,7944
2017-03-27T08:08:58.098Z,7944
2017-03-27T08:09:38.987Z,7956
2017-03-27T08:10:19.864Z,7972
2017-03-27T08:11:00.756Z,7976
2017-03-27T08:11:41.644Z,7960
2017-03-27T08:12:22.552Z,7988
2017-03-27T08:13:03.427Z,7976
2017-03-27T08:13:44.318Z,7968
2017-03-27T08:14:25.212Z,7976
2017-03-27T08:15:06.099Z,7968
2017-03-27T08:15:46.994Z,7952
2017-03-27T08:16:27.881Z,7956
2017-03-27T08:17:08.769Z,7984
2017-03-27T08:17:49.654Z,8020
2017-03-27T08:18:30.552Z,8032
2017-03-27T08:19:11.449Z,8040
2017-03-27T08:19:52.347Z,8048
2017-03-27T08:20:33.237Z,8080
2017-03-27T08:21:14.129Z,8116
2017-03-27T08:21:55.021Z,8172
2017-03-27T08:22:35.918Z,8348
2017-03-27T08:23:16.813Z,13136
2017-03-27T08:23:57.709Z,27680
2017-03-27T08:24:38.599Z,33280
2017-03-27T08:25:19.495Z,39392
2017-03-27T08:26:00.389Z,43616
2017-03-27T08:26:41.289Z,53376
2017-03-27T08:27:22.191Z,52480
2017-03-27T08:28:03.092Z,50720
2017-03-27T08:28:43.990Z,50048
2017-03-27T08:29:24.891Z,51328
2017-03-27T08:30:05.783Z,53472
2017-03-27T08:30:46.682Z,56160
2017-03-27T08:31:27.591Z,56448
2017-03-27T08:32:08.484Z,53728
2017-03-27T08:32:49.388Z,53824
2017-03-27T08:33:30.289Z,58176
2017-03-27T08:34:11.187Z,64864
2017-03-27T08:34:52.110Z,67808
2017-03-27T08:35:33.005Z,66592
2017-03-27T08:36:13.935Z,64128
2017-03-27T08:36:54.843Z,62144
2017-03-27T08:37:35.763Z,59488
2017-03-27T08:38:16.672Z,57248
2017-03-27T08:38:57.572Z,56480
2017-03-27T08:39:38.473Z,56384
2017-03-27T08:40:19.373Z,55840
2017-03-27T08:41:00.272Z,55648
2017-03-27T08:41:41.173Z,58848
2017-03-27T08:42:22.076Z,64576
2017-03-27T08:43:02.974Z,70336
2017-03-27T08:43:43.893Z,72320
2017-03-27T08:44:24.787Z,70336
2017-03-27T08:45:05.707Z,68992
2017-03-27T08:45:46.604Z,67296
2017-03-27T08:46:27.513Z,66624
2017-03-27T08:47:08.418Z,65600
2017-03-27T08:47:49.312Z,62848
2017-03-27T08:48:30.223Z,61280
2017-03-27T08:49:11.129Z,55776
2017-03-27T08:49:52.045Z,50592
2017-03-27T08:50:32.921Z,48928
2017-03-27T08:51:13.818Z,50304
2017-03-27T08:51:54.730Z,53408
2017-03-27T08:52:35.652Z,56224
2017-03-27T08:53:16.552Z,59168
2017-03-27T08:53:57.453Z,62688
2017-03-27T08:54:38.336Z,65472
2017-03-27T08:55:19.246Z,67168
2017-03-27T08:56:00.176Z,68960
2017-03-27T08:56:41.046Z,69216
2017-03-27T08:57:21.963Z,65440
2017-03-27T08:58:02.879Z,57056
2017-03-27T08:58:43.770Z,54272
2017-03-27T08:59:24.690Z,56640
2017-03-27T09:00:05.595Z,60064
2017-03-27T09:00:46.481Z,58624
2017-03-27T09:01:27.380Z,58048
2017-03-27T09:02:08.282Z,60288
2017-03-27T09:02:49.179Z,64736
2017-03-27T09:03:30.083Z,61184
2017-03-27T09:04:10.990Z,56000
2017-03-27T09:04:51.895Z,51136
2017-03-27T09:05:32.798Z,41248
2017-03-27T09:06:13.699Z,27840
2017-03-27T09:06:54.600Z,30880
2017-03-27T09:07:35.493Z,47008
2017-03-27T09:08:16.406Z,40704
2017-03-27T09:08:57.306Z,21440
2017-03-27T09:09:38.219Z,8280
2017-03-27T09:10:19.122Z,8104
2017-03-27T09:11:00.023Z,8104
2017-03-27T09:11:40.932Z,8204
2017-03-27T09:12:21.834Z,8696
2017-03-27T09:13:02.762Z,8324
2017-03-27T09:13:43.671Z,8140
2017-03-27T09:14:24.579Z,8140
2017-03-27T09:15:05.489Z,8184
2017-03-27T09:15:46.382Z,8240
2017-03-27T09:16:27.301Z,9388
2017-03-27T09:17:08.212Z,24832
2017-03-27T09:17:49.125Z,35424
2017-03-27T09:18:30.029Z,31968
2017-03-27T09:19:10.963Z,14408
2017-03-27T09:19:51.873Z,9156
2017-03-27T09:20:32.779Z,24864
2017-03-27T09:21:13.688Z,50368
2017-03-27T09:21:54.591Z,70336
2017-03-27T09:22:35.495Z,69344
2017-03-27T09:23:16.409Z,70208
2017-03-27T09:23:57.321Z,74976
2017-03-27T09:24:38.199Z,74560
2017-03-27T09:25:19.106Z,73536
2017-03-27T09:26:00.015Z,73376
2017-03-27T09:26:40.919Z,72512
2017-03-27T09:27:21.839Z,71520
2017-03-27T09:28:02.730Z,70752
2017-03-27T09:28:43.642Z,69472
2017-03-27T09:29:24.548Z,70752
2017-03-27T09:30:05.460Z,65600
2017-03-27T09:30:46.356Z,63616
2017-03-27T09:31:27.256Z,67840